Аэропорт: Чебоксары. Чебоксары

ICAO: UWKS

METAR:
2019-09-21 16:00:00
UWKS 211600Z 30004MPS 9999 SCT035CB 05/02 Q1008 R24/290355 NOSIG RMK QFE742
METAR:
2019-09-21 13:50:00
TAF UWKS 211350Z 2115/2124 27005G10MPS 5000 -SHRA BKN011 BKN015CB